sensor_id;sensor_type;location;lat;lon;timestamp;P1;durP1;ratioP1;P2;durP2;ratioP2
6017;SDS011;3037;51.068;13.780;2023-02-28T00:00:04;5.70;;;4.83;;
6017;SDS011;3037;51.068;13.780;2023-02-28T00:02:37;5.20;;;4.13;;
6017;SDS011;3037;51.068;13.780;2023-02-28T00:05:04;10.20;;;5.10;;
6017;SDS011;3037;51.068;13.780;2023-02-28T00:07:31;6.63;;;4.70;;
6017;SDS011;3037;51.068;13.780;2023-02-28T00:09:56;6.17;;;4.73;;
6017;SDS011;3037;51.068;13.780;2023-02-28T00:12:22;14.53;;;5.07;;
6017;SDS011;3037;51.068;13.780;2023-02-28T00:14:48;5.53;;;4.63;;
6017;SDS011;3037;51.068;13.780;2023-02-28T00:17:14;17.93;;;5.50;;
6017;SDS011;3037;51.068;13.780;2023-02-28T00:19:41;7.17;;;5.50;;
6017;SDS011;3037;51.068;13.780;2023-02-28T00:22:06;5.80;;;4.70;;
6017;SDS011;3037;51.068;13.780;2023-02-28T00:24:32;4.80;;;4.40;;
6017;SDS011;3037;51.068;13.780;2023-02-28T00:26:57;8.43;;;5.00;;
6017;SDS011;3037;51.068;13.780;2023-02-28T00:29:23;5.70;;;4.77;;
6017;SDS011;3037;51.068;13.780;2023-02-28T00:31:48;5.00;;;4.50;;
6017;SDS011;3037;51.068;13.780;2023-02-28T00:34:13;5.27;;;4.80;;
6017;SDS011;3037;51.068;13.780;2023-02-28T00:36:39;9.80;;;5.10;;
6017;SDS011;3037;51.068;13.780;2023-02-28T00:39:08;7.40;;;4.90;;
6017;SDS011;3037;51.068;13.780;2023-02-28T00:41:34;8.47;;;5.30;;
6017;SDS011;3037;51.068;13.780;2023-02-28T00:43:59;9.13;;;5.10;;
6017;SDS011;3037;51.068;13.780;2023-02-28T00:46:25;8.50;;;4.87;;
6017;SDS011;3037;51.068;13.780;2023-02-28T00:48:50;8.30;;;4.90;;
6017;SDS011;3037;51.068;13.780;2023-02-28T00:51:15;8.00;;;5.13;;
6017;SDS011;3037;51.068;13.780;2023-02-28T00:53:41;9.03;;;5.10;;
6017;SDS011;3037;51.068;13.780;2023-02-28T00:56:06;6.60;;;4.67;;
6017;SDS011;3037;51.068;13.780;2023-02-28T00:58:32;9.13;;;4.90;;
6017;SDS011;3037;51.068;13.780;2023-02-28T01:00:57;5.13;;;4.67;;
6017;SDS011;3037;51.068;13.780;2023-02-28T01:03:23;8.13;;;4.87;;
6017;SDS011;3037;51.068;13.780;2023-02-28T01:05:48;8.07;;;5.67;;
6017;SDS011;3037;51.068;13.780;2023-02-28T01:08:14;5.73;;;5.20;;
6017;SDS011;3037;51.068;13.780;2023-02-28T01:10:40;8.90;;;6.00;;
6017;SDS011;3037;51.068;13.780;2023-02-28T01:13:06;9.53;;;4.90;;
6017;SDS011;3037;51.068;13.780;2023-02-28T01:15:32;5.70;;;5.20;;
6017;SDS011;3037;51.068;13.780;2023-02-28T01:17:58;4.43;;;3.93;;
6017;SDS011;3037;51.068;13.780;2023-02-28T01:20:23;4.83;;;4.33;;
6017;SDS011;3037;51.068;13.780;2023-02-28T01:22:49;13.63;;;5.80;;
6017;SDS011;3037;51.068;13.780;2023-02-28T01:25:14;4.93;;;4.47;;
6017;SDS011;3037;51.068;13.780;2023-02-28T01:27:40;6.87;;;5.60;;
6017;SDS011;3037;51.068;13.780;2023-02-28T01:30:08;5.30;;;4.87;;
6017;SDS011;3037;51.068;13.780;2023-02-28T01:32:35;8.03;;;5.20;;
6017;SDS011;3037;51.068;13.780;2023-02-28T01:35:00;5.30;;;4.50;;
6017;SDS011;3037;51.068;13.780;2023-02-28T01:37:26;13.87;;;5.50;;
6017;SDS011;3037;51.068;13.780;2023-02-28T01:39:52;9.43;;;5.20;;
6017;SDS011;3037;51.068;13.780;2023-02-28T01:42:17;5.60;;;5.10;;
6017;SDS011;3037;51.068;13.780;2023-02-28T01:45:00;10.27;;;5.33;;
6017;SDS011;3037;51.068;13.780;2023-02-28T01:47:35;6.87;;;5.10;;
6017;SDS011;3037;51.068;13.780;2023-02-28T01:50:04;8.60;;;5.43;;
6017;SDS011;3037;51.068;13.780;2023-02-28T01:52:34;6.10;;;5.00;;
6017;SDS011;3037;51.068;13.780;2023-02-28T01:55:00;8.20;;;5.67;;
6017;SDS011;3037;51.068;13.780;2023-02-28T01:57:29;6.53;;;5.27;;
6017;SDS011;3037;51.068;13.780;2023-02-28T02:00:04;6.20;;;5.30;;
6017;SDS011;3037;51.068;13.780;2023-02-28T02:02:34;5.33;;;4.93;;
6017;SDS011;3037;51.068;13.780;2023-02-28T02:05:03;7.63;;;5.40;;
6017;SDS011;3037;51.068;13.780;2023-02-28T02:07:33;5.67;;;5.13;;
6017;SDS011;3037;51.068;13.780;2023-02-28T02:10:06;6.30;;;5.60;;
6017;SDS011;3037;51.068;13.780;2023-02-28T02:15:29;8.27;;;5.80;;
6017;SDS011;3037;51.068;13.780;2023-02-28T02:18:04;5.87;;;5.00;;
6017;SDS011;3037;51.068;13.780;2023-02-28T02:26:31;6.70;;;5.20;;
6017;SDS011;3037;51.068;13.780;2023-02-28T02:29:40;6.70;;;5.30;;
6017;SDS011;3037;51.068;13.780;2023-02-28T02:35:03;8.97;;;5.63;;
6017;SDS011;3037;51.068;13.780;2023-02-28T02:40:43;14.30;;;6.20;;
6017;SDS011;3037;51.068;13.780;2023-02-28T02:43:25;6.53;;;5.37;;
6017;SDS011;3037;51.068;13.780;2023-02-28T02:46:01;6.23;;;5.60;;
6017;SDS011;3037;51.068;13.780;2023-02-28T02:48:37;9.50;;;5.67;;
6017;SDS011;3037;51.068;13.780;2023-02-28T02:51:07;11.20;;;5.80;;
6017;SDS011;3037;51.068;13.780;2023-02-28T02:53:45;5.87;;;5.27;;
6017;SDS011;3037;51.068;13.780;2023-02-28T02:56:18;5.87;;;5.17;;
6017;SDS011;3037;51.068;13.780;2023-02-28T02:58:48;5.73;;;5.17;;
6017;SDS011;3037;51.068;13.780;2023-02-28T03:01:17;8.03;;;5.97;;
6017;SDS011;3037;51.068;13.780;2023-02-28T03:04:01;9.50;;;5.90;;
6017;SDS011;3037;51.068;13.780;2023-02-28T03:06:32;8.73;;;5.60;;
6017;SDS011;3037;51.068;13.780;2023-02-28T03:08:58;6.27;;;5.70;;
6017;SDS011;3037;51.068;13.780;2023-02-28T03:11:25;7.40;;;5.80;;
6017;SDS011;3037;51.068;13.780;2023-02-28T03:14:11;8.00;;;6.20;;
6017;SDS011;3037;51.068;13.780;2023-02-28T03:17:14;7.23;;;5.80;;
6017;SDS011;3037;51.068;13.780;2023-02-28T03:19:55;13.40;;;6.20;;
6017;SDS011;3037;51.068;13.780;2023-02-28T03:25:42;13.33;;;7.60;;
6017;SDS011;3037;51.068;13.780;2023-02-28T03:28:28;13.20;;;6.03;;
6017;SDS011;3037;51.068;13.780;2023-02-28T03:34:08;10.73;;;6.70;;
6017;SDS011;3037;51.068;13.780;2023-02-28T03:36:39;10.27;;;6.97;;
6017;SDS011;3037;51.068;13.780;2023-02-28T03:39:17;11.50;;;6.80;;
6017;SDS011;3037;51.068;13.780;2023-02-28T03:41:51;10.23;;;7.03;;
6017;SDS011;3037;51.068;13.780;2023-02-28T03:44:41;12.40;;;7.40;;
6017;SDS011;3037;51.068;13.780;2023-02-28T03:47:16;8.07;;;7.07;;
6017;SDS011;3037;51.068;13.780;2023-02-28T03:49:56;8.33;;;7.30;;
6017;SDS011;3037;51.068;13.780;2023-02-28T03:52:42;9.60;;;8.27;;
6017;SDS011;3037;51.068;13.780;2023-02-28T03:55:14;13.43;;;7.60;;
6017;SDS011;3037;51.068;13.780;2023-02-28T03:57:53;17.73;;;9.40;;
6017;SDS011;3037;51.068;13.780;2023-02-28T04:00:27;13.90;;;7.73;;
6017;SDS011;3037;51.068;13.780;2023-02-28T04:03:00;9.97;;;7.90;;
6017;SDS011;3037;51.068;13.780;2023-02-28T04:05:26;10.17;;;6.77;;
6017;SDS011;3037;51.068;13.780;2023-02-28T04:07:52;13.83;;;8.07;;
6017;SDS011;3037;51.068;13.780;2023-02-28T04:10:18;8.40;;;7.60;;
6017;SDS011;3037;51.068;13.780;2023-02-28T04:12:44;12.57;;;9.33;;
6017;SDS011;3037;51.068;13.780;2023-02-28T04:15:10;13.97;;;8.40;;
6017;SDS011;3037;51.068;13.780;2023-02-28T04:17:36;10.60;;;8.00;;
6017;SDS011;3037;51.068;13.780;2023-02-28T04:20:03;13.60;;;7.30;;
6017;SDS011;3037;51.068;13.780;2023-02-28T04:22:34;14.73;;;8.30;;
6017;SDS011;3037;51.068;13.780;2023-02-28T04:25:00;16.27;;;9.33;;
6017;SDS011;3037;51.068;13.780;2023-02-28T04:27:25;12.23;;;8.03;;
6017;SDS011;3037;51.068;13.780;2023-02-28T04:29:51;16.00;;;7.57;;
6017;SDS011;3037;51.068;13.780;2023-02-28T04:32:16;16.07;;;8.27;;
6017;SDS011;3037;51.068;13.780;2023-02-28T04:34:42;11.10;;;7.40;;
6017;SDS011;3037;51.068;13.780;2023-02-28T04:37:07;10.67;;;7.63;;
6017;SDS011;3037;51.068;13.780;2023-02-28T04:39:35;12.00;;;8.90;;
6017;SDS011;3037;51.068;13.780;2023-02-28T04:42:01;13.03;;;8.17;;
6017;SDS011;3037;51.068;13.780;2023-02-28T04:44:27;12.10;;;7.90;;
6017;SDS011;3037;51.068;13.780;2023-02-28T04:46:52;17.33;;;9.57;;
6017;SDS011;3037;51.068;13.780;2023-02-28T04:49:17;9.67;;;8.30;;
6017;SDS011;3037;51.068;13.780;2023-02-28T04:51:43;12.10;;;7.73;;
6017;SDS011;3037;51.068;13.780;2023-02-28T04:54:08;11.03;;;7.60;;
6017;SDS011;3037;51.068;13.780;2023-02-28T04:56:34;12.70;;;7.87;;
6017;SDS011;3037;51.068;13.780;2023-02-28T04:59:00;14.30;;;8.63;;
6017;SDS011;3037;51.068;13.780;2023-02-28T05:01:30;12.03;;;7.50;;
6017;SDS011;3037;51.068;13.780;2023-02-28T05:03:57;16.70;;;9.30;;
6017;SDS011;3037;51.068;13.780;2023-02-28T05:06:25;11.67;;;7.83;;
6017;SDS011;3037;51.068;13.780;2023-02-28T05:08:51;16.27;;;9.43;;
6017;SDS011;3037;51.068;13.780;2023-02-28T05:11:18;16.10;;;9.10;;
6017;SDS011;3037;51.068;13.780;2023-02-28T05:13:59;11.63;;;8.30;;
6017;SDS011;3037;51.068;13.780;2023-02-28T05:16:25;17.40;;;8.90;;
6017;SDS011;3037;51.068;13.780;2023-02-28T05:18:50;16.80;;;8.57;;
6017;SDS011;3037;51.068;13.780;2023-02-28T05:21:29;16.03;;;10.27;;
6017;SDS011;3037;51.068;13.780;2023-02-28T05:23:57;15.00;;;9.30;;
6017;SDS011;3037;51.068;13.780;2023-02-28T05:26:24;12.90;;;8.80;;
6017;SDS011;3037;51.068;13.780;2023-02-28T05:28:50;13.17;;;9.50;;
6017;SDS011;3037;51.068;13.780;2023-02-28T05:31:16;14.63;;;9.20;;
6017;SDS011;3037;51.068;13.780;2023-02-28T05:33:41;16.40;;;10.07;;
6017;SDS011;3037;51.068;13.780;2023-02-28T05:36:07;14.97;;;9.33;;
6017;SDS011;3037;51.068;13.780;2023-02-28T05:38:33;18.60;;;9.40;;
6017;SDS011;3037;51.068;13.780;2023-02-28T05:40:58;18.60;;;10.60;;
6017;SDS011;3037;51.068;13.780;2023-02-28T05:43:24;14.87;;;10.07;;
6017;SDS011;3037;51.068;13.780;2023-02-28T05:45:49;14.47;;;9.27;;
6017;SDS011;3037;51.068;13.780;2023-02-28T05:48:15;11.57;;;9.17;;
6017;SDS011;3037;51.068;13.780;2023-02-28T05:50:41;16.80;;;9.97;;
6017;SDS011;3037;51.068;13.780;2023-02-28T05:53:07;14.00;;;9.13;;
6017;SDS011;3037;51.068;13.780;2023-02-28T05:55:33;15.63;;;10.20;;
6017;SDS011;3037;51.068;13.780;2023-02-28T05:58:00;17.10;;;10.00;;
6017;SDS011;3037;51.068;13.780;2023-02-28T06:00:26;17.63;;;10.77;;
6017;SDS011;3037;51.068;13.780;2023-02-28T06:02:52;16.13;;;9.47;;
6017;SDS011;3037;51.068;13.780;2023-02-28T06:05:21;15.63;;;9.80;;
6017;SDS011;3037;51.068;13.780;2023-02-28T06:07:46;16.63;;;10.70;;
6017;SDS011;3037;51.068;13.780;2023-02-28T06:10:12;18.57;;;9.53;;
6017;SDS011;3037;51.068;13.780;2023-02-28T06:12:38;14.53;;;10.50;;
6017;SDS011;3037;51.068;13.780;2023-02-28T06:15:06;16.80;;;10.30;;
6017;SDS011;3037;51.068;13.780;2023-02-28T06:17:32;13.23;;;10.20;;
6017;SDS011;3037;51.068;13.780;2023-02-28T06:19:58;14.57;;;10.10;;
6017;SDS011;3037;51.068;13.780;2023-02-28T06:22:23;13.90;;;10.10;;
6017;SDS011;3037;51.068;13.780;2023-02-28T06:24:49;18.87;;;10.60;;
6017;SDS011;3037;51.068;13.780;2023-02-28T06:27:14;16.10;;;10.63;;
6017;SDS011;3037;51.068;13.780;2023-02-28T06:29:40;18.40;;;10.40;;
6017;SDS011;3037;51.068;13.780;2023-02-28T06:32:05;17.53;;;10.40;;
6017;SDS011;3037;51.068;13.780;2023-02-28T06:34:31;16.40;;;11.33;;
6017;SDS011;3037;51.068;13.780;2023-02-28T06:36:59;20.53;;;11.37;;
6017;SDS011;3037;51.068;13.780;2023-02-28T06:39:27;17.20;;;11.83;;
6017;SDS011;3037;51.068;13.780;2023-02-28T06:41:56;19.83;;;11.67;;
6017;SDS011;3037;51.068;13.780;2023-02-28T06:44:22;23.30;;;11.30;;
6017;SDS011;3037;51.068;13.780;2023-02-28T06:46:49;21.20;;;11.20;;
6017;SDS011;3037;51.068;13.780;2023-02-28T06:49:15;21.80;;;11.33;;
6017;SDS011;3037;51.068;13.780;2023-02-28T06:51:42;18.20;;;10.20;;
6017;SDS011;3037;51.068;13.780;2023-02-28T06:54:12;22.30;;;12.30;;
6017;SDS011;3037;51.068;13.780;2023-02-28T06:56:38;24.53;;;11.53;;
6017;SDS011;3037;51.068;13.780;2023-02-28T06:59:04;16.40;;;11.40;;
6017;SDS011;3037;51.068;13.780;2023-02-28T07:01:29;16.97;;;10.10;;
6017;SDS011;3037;51.068;13.780;2023-02-28T07:03:56;18.93;;;11.37;;
6017;SDS011;3037;51.068;13.780;2023-02-28T07:06:22;19.40;;;11.27;;
6017;SDS011;3037;51.068;13.780;2023-02-28T07:08:48;15.13;;;11.23;;
6017;SDS011;3037;51.068;13.780;2023-02-28T07:11:14;20.50;;;11.17;;
6017;SDS011;3037;51.068;13.780;2023-02-28T07:13:40;14.50;;;9.53;;
6017;SDS011;3037;51.068;13.780;2023-02-28T07:16:06;14.70;;;9.43;;
6017;SDS011;3037;51.068;13.780;2023-02-28T07:18:35;12.33;;;8.73;;
6017;SDS011;3037;51.068;13.780;2023-02-28T07:21:02;16.37;;;8.50;;
6017;SDS011;3037;51.068;13.780;2023-02-28T07:23:29;12.30;;;9.03;;
6017;SDS011;3037;51.068;13.780;2023-02-28T07:25:54;14.40;;;9.33;;
6017;SDS011;3037;51.068;13.780;2023-02-28T07:28:20;19.17;;;8.80;;
6017;SDS011;3037;51.068;13.780;2023-02-28T07:30:45;14.40;;;8.70;;
6017;SDS011;3037;51.068;13.780;2023-02-28T07:33:11;13.63;;;8.83;;
6017;SDS011;3037;51.068;13.780;2023-02-28T07:35:37;13.53;;;8.87;;
6017;SDS011;3037;51.068;13.780;2023-02-28T07:38:02;10.47;;;8.43;;
6017;SDS011;3037;51.068;13.780;2023-02-28T07:40:28;14.37;;;8.47;;
6017;SDS011;3037;51.068;13.780;2023-02-28T07:42:54;19.80;;;9.10;;
6017;SDS011;3037;51.068;13.780;2023-02-28T07:45:19;13.60;;;7.93;;
6017;SDS011;3037;51.068;13.780;2023-02-28T07:47:45;9.63;;;7.43;;
6017;SDS011;3037;51.068;13.780;2023-02-28T07:50:12;12.50;;;9.20;;
6017;SDS011;3037;51.068;13.780;2023-02-28T07:52:40;13.50;;;8.50;;
6017;SDS011;3037;51.068;13.780;2023-02-28T07:55:07;18.77;;;9.80;;
6017;SDS011;3037;51.068;13.780;2023-02-28T07:57:34;13.83;;;9.53;;
6017;SDS011;3037;51.068;13.780;2023-02-28T08:00:00;18.57;;;9.47;;
6017;SDS011;3037;51.068;13.780;2023-02-28T08:02:26;13.50;;;9.07;;
6017;SDS011;3037;51.068;13.780;2023-02-28T08:04:52;13.97;;;9.13;;
6017;SDS011;3037;51.068;13.780;2023-02-28T08:07:17;15.80;;;8.87;;
6017;SDS011;3037;51.068;13.780;2023-02-28T08:09:43;12.67;;;9.00;;
6017;SDS011;3037;51.068;13.780;2023-02-28T08:12:10;9.50;;;8.57;;
6017;SDS011;3037;51.068;13.780;2023-02-28T08:14:36;15.73;;;10.13;;
6017;SDS011;3037;51.068;13.780;2023-02-28T08:17:02;12.37;;;9.47;;
6017;SDS011;3037;51.068;13.780;2023-02-28T08:19:28;15.80;;;9.47;;
6017;SDS011;3037;51.068;13.780;2023-02-28T08:21:54;12.63;;;8.50;;
6017;SDS011;3037;51.068;13.780;2023-02-28T08:24:20;15.30;;;9.77;;
6017;SDS011;3037;51.068;13.780;2023-02-28T08:26:45;19.60;;;9.00;;
6017;SDS011;3037;51.068;13.780;2023-02-28T08:29:11;15.03;;;9.30;;
6017;SDS011;3037;51.068;13.780;2023-02-28T08:31:36;19.03;;;10.30;;
6017;SDS011;3037;51.068;13.780;2023-02-28T08:34:10;17.20;;;10.20;;
6017;SDS011;3037;51.068;13.780;2023-02-28T08:36:39;15.90;;;9.60;;
6017;SDS011;3037;51.068;13.780;2023-02-28T08:39:06;14.70;;;9.30;;
6017;SDS011;3037;51.068;13.780;2023-02-28T08:41:32;15.30;;;9.80;;
6017;SDS011;3037;51.068;13.780;2023-02-28T08:43:58;17.40;;;9.43;;
6017;SDS011;3037;51.068;13.780;2023-02-28T08:46:24;15.13;;;8.60;;
6017;SDS011;3037;51.068;13.780;2023-02-28T08:48:53;23.03;;;10.03;;
6017;SDS011;3037;51.068;13.780;2023-02-28T08:51:20;13.57;;;8.83;;
6017;SDS011;3037;51.068;13.780;2023-02-28T08:53:51;18.23;;;8.80;;
6017;SDS011;3037;51.068;13.780;2023-02-28T08:56:17;13.20;;;9.93;;
6017;SDS011;3037;51.068;13.780;2023-02-28T08:58:44;11.53;;;8.60;;
6017;SDS011;3037;51.068;13.780;2023-02-28T09:01:11;13.57;;;7.70;;
6017;SDS011;3037;51.068;13.780;2023-02-28T09:03:38;17.77;;;8.73;;
6017;SDS011;3037;51.068;13.780;2023-02-28T09:06:05;20.13;;;7.80;;
6017;SDS011;3037;51.068;13.780;2023-02-28T09:08:31;14.20;;;7.97;;
6017;SDS011;3037;51.068;13.780;2023-02-28T09:10:57;8.40;;;7.50;;
6017;SDS011;3037;51.068;13.780;2023-02-28T09:13:24;8.90;;;7.00;;
6017;SDS011;3037;51.068;13.780;2023-02-28T09:15:51;29.03;;;8.73;;
6017;SDS011;3037;51.068;13.780;2023-02-28T09:18:17;13.17;;;7.67;;
6017;SDS011;3037;51.068;13.780;2023-02-28T09:20:42;12.23;;;8.07;;
6017;SDS011;3037;51.068;13.780;2023-02-28T09:23:09;12.03;;;7.60;;
6017;SDS011;3037;51.068;13.780;2023-02-28T09:25:36;12.37;;;8.17;;
6017;SDS011;3037;51.068;13.780;2023-02-28T09:28:03;8.97;;;7.17;;
6017;SDS011;3037;51.068;13.780;2023-02-28T09:30:29;12.63;;;8.10;;
6017;SDS011;3037;51.068;13.780;2023-02-28T09:32:55;11.53;;;7.87;;
6017;SDS011;3037;51.068;13.780;2023-02-28T09:35:21;14.53;;;8.43;;
6017;SDS011;3037;51.068;13.780;2023-02-28T09:37:48;14.30;;;7.40;;
6017;SDS011;3037;51.068;13.780;2023-02-28T09:40:16;12.30;;;7.80;;
6017;SDS011;3037;51.068;13.780;2023-02-28T09:42:44;11.00;;;7.57;;
6017;SDS011;3037;51.068;13.780;2023-02-28T09:45:31;10.73;;;7.60;;
6017;SDS011;3037;51.068;13.780;2023-02-28T09:48:01;11.40;;;7.43;;
6017;SDS011;3037;51.068;13.780;2023-02-28T09:50:51;12.97;;;6.73;;
6017;SDS011;3037;51.068;13.780;2023-02-28T09:55:53;13.30;;;6.33;;
6017;SDS011;3037;51.068;13.780;2023-02-28T09:58:23;6.20;;;5.50;;
6017;SDS011;3037;51.068;13.780;2023-02-28T10:00:59;8.10;;;6.20;;
6017;SDS011;3037;51.068;13.780;2023-02-28T10:03:42;12.10;;;6.40;;
6017;SDS011;3037;51.068;13.780;2023-02-28T10:06:44;9.83;;;6.47;;
6017;SDS011;3037;51.068;13.780;2023-02-28T10:09:15;10.63;;;7.10;;
6017;SDS011;3037;51.068;13.780;2023-02-28T10:11:47;12.30;;;6.80;;
6017;SDS011;3037;51.068;13.780;2023-02-28T10:14:16;8.20;;;6.50;;
6017;SDS011;3037;51.068;13.780;2023-02-28T10:16:48;10.97;;;7.43;;
6017;SDS011;3037;51.068;13.780;2023-02-28T10:20:05;10.23;;;6.47;;
6017;SDS011;3037;51.068;13.780;2023-02-28T10:22:27;11.03;;;6.80;;
6017;SDS011;3037;51.068;13.780;2023-02-28T10:25:21;17.27;;;7.17;;
6017;SDS011;3037;51.068;13.780;2023-02-28T10:27:49;9.60;;;6.70;;
6017;SDS011;3037;51.068;13.780;2023-02-28T10:30:18;11.07;;;7.30;;
6017;SDS011;3037;51.068;13.780;2023-02-28T10:32:47;8.63;;;6.87;;
6017;SDS011;3037;51.068;13.780;2023-02-28T10:37:46;10.93;;;7.23;;
6017;SDS011;3037;51.068;13.780;2023-02-28T10:45:30;13.97;;;7.80;;
6017;SDS011;3037;51.068;13.780;2023-02-28T10:50:51;14.40;;;7.20;;
6017;SDS011;3037;51.068;13.780;2023-02-28T10:55:57;11.50;;;7.20;;
6017;SDS011;3037;51.068;13.780;2023-02-28T11:01:47;9.03;;;8.10;;
6017;SDS011;3037;51.068;13.780;2023-02-28T11:09:28;15.10;;;8.00;;
6017;SDS011;3037;51.068;13.780;2023-02-28T11:11:59;13.83;;;8.43;;
6017;SDS011;3037;51.068;13.780;2023-02-28T11:14:27;10.40;;;7.80;;
6017;SDS011;3037;51.068;13.780;2023-02-28T11:16:55;9.43;;;7.30;;
6017;SDS011;3037;51.068;13.780;2023-02-28T11:19:29;10.80;;;8.40;;
6017;SDS011;3037;51.068;13.780;2023-02-28T11:22:01;10.20;;;7.37;;
6017;SDS011;3037;51.068;13.780;2023-02-28T11:24:30;11.57;;;8.10;;
6017;SDS011;3037;51.068;13.780;2023-02-28T11:26:58;11.90;;;8.17;;
6017;SDS011;3037;51.068;13.780;2023-02-28T11:29:25;10.53;;;7.90;;
6017;SDS011;3037;51.068;13.780;2023-02-28T11:34:45;11.10;;;8.63;;
6017;SDS011;3037;51.068;13.780;2023-02-28T11:37:24;11.47;;;8.03;;
6017;SDS011;3037;51.068;13.780;2023-02-28T11:39:52;14.43;;;8.47;;
6017;SDS011;3037;51.068;13.780;2023-02-28T11:42:30;13.63;;;8.90;;
6017;SDS011;3037;51.068;13.780;2023-02-28T11:55:35;10.73;;;8.00;;
6017;SDS011;3037;51.068;13.780;2023-02-28T11:58:05;16.40;;;9.07;;
6017;SDS011;3037;51.068;13.780;2023-02-28T12:03:56;9.60;;;7.50;;
6017;SDS011;3037;51.068;13.780;2023-02-28T12:06:48;10.00;;;8.10;;
6017;SDS011;3037;51.068;13.780;2023-02-28T12:12:18;11.97;;;7.83;;
6017;SDS011;3037;51.068;13.780;2023-02-28T12:25:48;14.07;;;9.50;;
6017;SDS011;3037;51.068;13.780;2023-02-28T12:28:30;13.00;;;8.17;;
6017;SDS011;3037;51.068;13.780;2023-02-28T12:31:01;14.80;;;8.43;;
6017;SDS011;3037;51.068;13.780;2023-02-28T12:33:35;13.37;;;8.83;;
6017;SDS011;3037;51.068;13.780;2023-02-28T12:36:07;14.10;;;8.33;;
6017;SDS011;3037;51.068;13.780;2023-02-28T12:38:43;10.57;;;9.13;;
6017;SDS011;3037;51.068;13.780;2023-02-28T12:41:19;16.30;;;8.80;;
6017;SDS011;3037;51.068;13.780;2023-02-28T12:44:00;12.17;;;8.60;;
6017;SDS011;3037;51.068;13.780;2023-02-28T12:46:30;10.10;;;7.93;;
6017;SDS011;3037;51.068;13.780;2023-02-28T12:49:15;16.13;;;8.80;;
6017;SDS011;3037;51.068;13.780;2023-02-28T12:51:49;19.63;;;9.60;;
6017;SDS011;3037;51.068;13.780;2023-02-28T13:02:19;14.17;;;9.73;;
6017;SDS011;3037;51.068;13.780;2023-02-28T13:05:10;12.00;;;9.57;;
6017;SDS011;3037;51.068;13.780;2023-02-28T13:10:24;13.83;;;8.73;;
6017;SDS011;3037;51.068;13.780;2023-02-28T13:13:11;12.30;;;8.60;;
6017;SDS011;3037;51.068;13.780;2023-02-28T13:15:40;13.97;;;8.43;;
6017;SDS011;3037;51.068;13.780;2023-02-28T13:18:31;14.87;;;9.03;;
6017;SDS011;3037;51.068;13.780;2023-02-28T13:21:27;16.00;;;10.07;;
6017;SDS011;3037;51.068;13.780;2023-02-28T13:24:01;19.20;;;11.47;;
6017;SDS011;3037;51.068;13.780;2023-02-28T13:32:18;14.60;;;9.77;;
6017;SDS011;3037;51.068;13.780;2023-02-28T13:34:33;15.47;;;10.17;;
6017;SDS011;3037;51.068;13.780;2023-02-28T13:39:49;24.20;;;11.20;;
6017;SDS011;3037;51.068;13.780;2023-02-28T13:47:40;15.57;;;10.63;;
6017;SDS011;3037;51.068;13.780;2023-02-28T14:04:08;14.40;;;10.73;;
6017;SDS011;3037;51.068;13.780;2023-02-28T14:06:56;18.67;;;10.70;;
6017;SDS011;3037;51.068;13.780;2023-02-28T14:09:24;14.80;;;10.57;;
6017;SDS011;3037;51.068;13.780;2023-02-28T14:17:58;17.07;;;11.03;;
6017;SDS011;3037;51.068;13.780;2023-02-28T14:20:27;16.10;;;10.30;;
6017;SDS011;3037;51.068;13.780;2023-02-28T14:23:04;17.00;;;11.10;;
6017;SDS011;3037;51.068;13.780;2023-02-28T14:26:34;16.87;;;11.27;;
6017;SDS011;3037;51.068;13.780;2023-02-28T14:31:12;13.87;;;9.97;;
6017;SDS011;3037;51.068;13.780;2023-02-28T14:36:38;15.60;;;11.50;;
6017;SDS011;3037;51.068;13.780;2023-02-28T14:39:07;15.10;;;10.90;;
6017;SDS011;3037;51.068;13.780;2023-02-28T14:41:39;24.73;;;11.10;;
6017;SDS011;3037;51.068;13.780;2023-02-28T14:44:19;20.00;;;10.40;;
6017;SDS011;3037;51.068;13.780;2023-02-28T14:47:00;13.77;;;9.63;;
6017;SDS011;3037;51.068;13.780;2023-02-28T14:49:41;14.87;;;10.57;;
6017;SDS011;3037;51.068;13.780;2023-02-28T14:52:15;21.57;;;11.70;;
6017;SDS011;3037;51.068;13.780;2023-02-28T14:54:45;17.13;;;11.27;;
6017;SDS011;3037;51.068;13.780;2023-02-28T14:57:31;15.57;;;10.50;;
6017;SDS011;3037;51.068;13.780;2023-02-28T15:00:07;23.60;;;11.47;;
6017;SDS011;3037;51.068;13.780;2023-02-28T15:02:41;15.53;;;10.87;;
6017;SDS011;3037;51.068;13.780;2023-02-28T15:07:42;21.90;;;11.20;;
6017;SDS011;3037;51.068;13.780;2023-02-28T15:10:20;16.63;;;11.03;;
6017;SDS011;3037;51.068;13.780;2023-02-28T15:12:56;18.53;;;10.70;;
6017;SDS011;3037;51.068;13.780;2023-02-28T15:18:21;14.07;;;9.67;;
6017;SDS011;3037;51.068;13.780;2023-02-28T15:20:51;14.73;;;10.80;;
6017;SDS011;3037;51.068;13.780;2023-02-28T15:23:18;14.80;;;10.07;;
6017;SDS011;3037;51.068;13.780;2023-02-28T15:25:45;17.03;;;11.00;;
6017;SDS011;3037;51.068;13.780;2023-02-28T15:28:13;20.60;;;12.03;;
6017;SDS011;3037;51.068;13.780;2023-02-28T15:30:50;15.57;;;10.60;;
6017;SDS011;3037;51.068;13.780;2023-02-28T15:35:45;19.37;;;11.03;;
6017;SDS011;3037;51.068;13.780;2023-02-28T15:38:26;22.43;;;11.60;;
6017;SDS011;3037;51.068;13.780;2023-02-28T15:43:29;15.50;;;11.10;;
6017;SDS011;3037;51.068;13.780;2023-02-28T15:45:59;23.63;;;12.97;;
6017;SDS011;3037;51.068;13.780;2023-02-28T15:48:42;25.80;;;13.10;;
6017;SDS011;3037;51.068;13.780;2023-02-28T15:51:23;18.60;;;11.70;;
6017;SDS011;3037;51.068;13.780;2023-02-28T15:53:54;21.53;;;13.33;;
6017;SDS011;3037;51.068;13.780;2023-02-28T15:56:24;20.67;;;12.80;;
6017;SDS011;3037;51.068;13.780;2023-02-28T15:58:59;22.90;;;13.30;;
6017;SDS011;3037;51.068;13.780;2023-02-28T16:01:33;16.37;;;11.10;;
6017;SDS011;3037;51.068;13.780;2023-02-28T16:04:01;20.80;;;11.40;;
6017;SDS011;3037;51.068;13.780;2023-02-28T16:06:38;18.73;;;10.50;;
6017;SDS011;3037;51.068;13.780;2023-02-28T16:09:12;15.23;;;9.70;;
6017;SDS011;3037;51.068;13.780;2023-02-28T16:11:41;15.37;;;11.10;;
6017;SDS011;3037;51.068;13.780;2023-02-28T16:14:22;21.60;;;10.50;;
6017;SDS011;3037;51.068;13.780;2023-02-28T16:16:50;13.40;;;10.20;;
6017;SDS011;3037;51.068;13.780;2023-02-28T16:19:18;20.87;;;12.30;;
6017;SDS011;3037;51.068;13.780;2023-02-28T16:21:44;26.17;;;14.67;;
6017;SDS011;3037;51.068;13.780;2023-02-28T16:24:10;42.23;;;14.50;;
6017;SDS011;3037;51.068;13.780;2023-02-28T16:26:36;25.13;;;13.57;;
6017;SDS011;3037;51.068;13.780;2023-02-28T16:29:04;24.37;;;12.77;;
6017;SDS011;3037;51.068;13.780;2023-02-28T16:31:31;26.37;;;14.23;;
6017;SDS011;3037;51.068;13.780;2023-02-28T16:34:00;19.27;;;11.23;;
6017;SDS011;3037;51.068;13.780;2023-02-28T16:36:26;21.80;;;11.90;;
6017;SDS011;3037;51.068;13.780;2023-02-28T16:38:52;16.07;;;10.63;;
6017;SDS011;3037;51.068;13.780;2023-02-28T16:41:20;22.07;;;12.83;;
6017;SDS011;3037;51.068;13.780;2023-02-28T16:43:48;18.17;;;11.83;;
6017;SDS011;3037;51.068;13.780;2023-02-28T16:46:16;18.47;;;10.33;;
6017;SDS011;3037;51.068;13.780;2023-02-28T16:48:43;22.97;;;11.17;;
6017;SDS011;3037;51.068;13.780;2023-02-28T16:51:13;13.70;;;9.90;;
6017;SDS011;3037;51.068;13.780;2023-02-28T16:53:40;18.50;;;11.43;;
6017;SDS011;3037;51.068;13.780;2023-02-28T16:56:08;20.30;;;11.70;;
6017;SDS011;3037;51.068;13.780;2023-02-28T16:58:43;17.80;;;11.70;;
6017;SDS011;3037;51.068;13.780;2023-02-28T17:01:08;21.47;;;11.67;;
6017;SDS011;3037;51.068;13.780;2023-02-28T17:03:34;12.70;;;10.70;;
6017;SDS011;3037;51.068;13.780;2023-02-28T17:06:01;17.33;;;10.43;;
6017;SDS011;3037;51.068;13.780;2023-02-28T17:08:27;21.13;;;12.40;;
6017;SDS011;3037;51.068;13.780;2023-02-28T17:10:54;17.93;;;12.50;;
6017;SDS011;3037;51.068;13.780;2023-02-28T17:13:20;24.83;;;12.00;;
6017;SDS011;3037;51.068;13.780;2023-02-28T17:15:45;15.37;;;11.07;;
6017;SDS011;3037;51.068;13.780;2023-02-28T17:18:13;22.20;;;11.30;;
6017;SDS011;3037;51.068;13.780;2023-02-28T17:20:41;17.50;;;11.43;;